sensor_id;sensor_type;location;lat;lon;timestamp;P1;durP1;ratioP1;P2;durP2;ratioP2
61483;SDS011;47349;55.640;37.692;2023-06-14T00:03:58;18.13;;;7.72;;
61483;SDS011;47349;55.640;37.692;2023-06-14T02:10:17;21.52;;;9.48;;
61483;SDS011;47349;55.640;37.692;2023-06-14T02:12:46;23.15;;;10.00;;
61483;SDS011;47349;55.640;37.692;2023-06-14T02:15:13;22.02;;;9.23;;
61483;SDS011;47349;55.640;37.692;2023-06-14T02:17:44;18.65;;;8.60;;
61483;SDS011;47349;55.640;37.692;2023-06-14T02:20:11;23.17;;;9.70;;
61483;SDS011;47349;55.640;37.692;2023-06-14T02:22:39;41.47;;;15.60;;
61483;SDS011;47349;55.640;37.692;2023-06-14T02:35:44;22.50;;;10.27;;
61483;SDS011;47349;55.640;37.692;2023-06-14T02:38:13;26.45;;;10.65;;
61483;SDS011;47349;55.640;37.692;2023-06-14T02:40:40;19.85;;;10.55;;
61483;SDS011;47349;55.640;37.692;2023-06-14T02:43:09;20.45;;;10.82;;
61483;SDS011;47349;55.640;37.692;2023-06-14T02:45:37;20.73;;;11.27;;
61483;SDS011;47349;55.640;37.692;2023-06-14T02:58:55;21.90;;;10.38;;
61483;SDS011;47349;55.640;37.692;2023-06-14T03:01:24;25.00;;;11.68;;
61483;SDS011;47349;55.640;37.692;2023-06-14T03:04:14;23.05;;;10.02;;
61483;SDS011;47349;55.640;37.692;2023-06-14T03:06:51;21.52;;;10.15;;
61483;SDS011;47349;55.640;37.692;2023-06-14T03:09:22;30.83;;;11.07;;
61483;SDS011;47349;55.640;37.692;2023-06-14T03:12:04;26.98;;;11.73;;
61483;SDS011;47349;55.640;37.692;2023-06-14T03:14:34;28.33;;;11.23;;
61483;SDS011;47349;55.640;37.692;2023-06-14T03:17:20;21.17;;;11.65;;
61483;SDS011;47349;55.640;37.692;2023-06-14T03:19:50;20.50;;;10.35;;
61483;SDS011;47349;55.640;37.692;2023-06-14T03:22:17;30.02;;;11.90;;
61483;SDS011;47349;55.640;37.692;2023-06-14T03:24:45;21.58;;;11.10;;
61483;SDS011;47349;55.640;37.692;2023-06-14T03:27:14;28.05;;;11.02;;
61483;SDS011;47349;55.640;37.692;2023-06-14T03:29:44;26.30;;;12.48;;
61483;SDS011;47349;55.640;37.692;2023-06-14T03:32:11;29.20;;;10.95;;
61483;SDS011;47349;55.640;37.692;2023-06-14T03:34:41;26.65;;;11.35;;
61483;SDS011;47349;55.640;37.692;2023-06-14T03:37:15;27.58;;;10.27;;
61483;SDS011;47349;55.640;37.692;2023-06-14T03:39:47;22.98;;;9.25;;
61483;SDS011;47349;55.640;37.692;2023-06-14T03:42:20;24.13;;;10.75;;
61483;SDS011;47349;55.640;37.692;2023-06-14T03:45:01;21.33;;;10.35;;
61483;SDS011;47349;55.640;37.692;2023-06-14T03:47:33;26.40;;;10.05;;
61483;SDS011;47349;55.640;37.692;2023-06-14T03:50:16;14.93;;;9.13;;
61483;SDS011;47349;55.640;37.692;2023-06-14T03:52:54;24.95;;;9.68;;
61483;SDS011;47349;55.640;37.692;2023-06-14T03:55:22;21.17;;;9.35;;
61483;SDS011;47349;55.640;37.692;2023-06-14T03:57:58;20.33;;;9.50;;
61483;SDS011;47349;55.640;37.692;2023-06-14T04:00:27;23.88;;;10.77;;
61483;SDS011;47349;55.640;37.692;2023-06-14T04:02:59;16.30;;;9.68;;
61483;SDS011;47349;55.640;37.692;2023-06-14T04:05:40;20.33;;;9.60;;
61483;SDS011;47349;55.640;37.692;2023-06-14T04:08:09;17.83;;;9.65;;
61483;SDS011;47349;55.640;37.692;2023-06-14T04:10:39;20.27;;;10.30;;
61483;SDS011;47349;55.640;37.692;2023-06-14T04:52:14;19.08;;;8.52;;
61483;SDS011;47349;55.640;37.692;2023-06-14T04:54:44;18.42;;;8.35;;
61483;SDS011;47349;55.640;37.692;2023-06-14T04:57:16;14.80;;;7.75;;
61483;SDS011;47349;55.640;37.692;2023-06-14T04:59:48;18.90;;;8.43;;
61483;SDS011;47349;55.640;37.692;2023-06-14T05:02:19;12.20;;;7.05;;
61483;SDS011;47349;55.640;37.692;2023-06-14T05:04:47;16.75;;;7.68;;
61483;SDS011;47349;55.640;37.692;2023-06-14T05:07:15;15.57;;;7.10;;
61483;SDS011;47349;55.640;37.692;2023-06-14T05:10:06;14.88;;;6.85;;
61483;SDS011;47349;55.640;37.692;2023-06-14T05:12:34;15.88;;;8.25;;
61483;SDS011;47349;55.640;37.692;2023-06-14T05:46:39;8.60;;;5.10;;
61483;SDS011;47349;55.640;37.692;2023-06-14T05:51:53;9.13;;;4.80;;
61483;SDS011;47349;55.640;37.692;2023-06-14T05:54:20;7.75;;;4.63;;
61483;SDS011;47349;55.640;37.692;2023-06-14T05:56:47;13.32;;;4.13;;
61483;SDS011;47349;55.640;37.692;2023-06-14T05:59:15;7.57;;;4.45;;
61483;SDS011;47349;55.640;37.692;2023-06-14T06:01:42;9.18;;;3.83;;
61483;SDS011;47349;55.640;37.692;2023-06-14T06:04:10;6.57;;;3.03;;
61483;SDS011;47349;55.640;37.692;2023-06-14T06:06:37;8.07;;;3.80;;
61483;SDS011;47349;55.640;37.692;2023-06-14T06:09:06;5.78;;;3.58;;
61483;SDS011;47349;55.640;37.692;2023-06-14T06:11:34;9.20;;;3.53;;
61483;SDS011;47349;55.640;37.692;2023-06-14T06:14:17;4.68;;;2.90;;
61483;SDS011;47349;55.640;37.692;2023-06-14T07:45:06;4.47;;;3.22;;
61483;SDS011;47349;55.640;37.692;2023-06-14T07:50:12;9.25;;;3.20;;
61483;SDS011;47349;55.640;37.692;2023-06-14T07:52:40;8.00;;;3.33;;
61483;SDS011;47349;55.640;37.692;2023-06-14T09:14:12;7.75;;;3.70;;
61483;SDS011;47349;55.640;37.692;2023-06-14T10:55:36;6.72;;;3.55;;
61483;SDS011;47349;55.640;37.692;2023-06-14T11:29:20;5.88;;;3.15;;
61483;SDS011;47349;55.640;37.692;2023-06-14T11:31:50;8.20;;;3.28;;
61483;SDS011;47349;55.640;37.692;2023-06-14T11:40:08;5.32;;;2.97;;
61483;SDS011;47349;55.640;37.692;2023-06-14T12:33:45;4.45;;;3.38;;
61483;SDS011;47349;55.640;37.692;2023-06-14T12:36:15;7.25;;;2.90;;
61483;SDS011;47349;55.640;37.692;2023-06-14T12:38:46;5.40;;;3.90;;
61483;SDS011;47349;55.640;37.692;2023-06-14T12:41:13;4.80;;;3.08;;
61483;SDS011;47349;55.640;37.692;2023-06-14T12:43:41;5.32;;;3.20;;
61483;SDS011;47349;55.640;37.692;2023-06-14T12:53:37;4.80;;;2.88;;
61483;SDS011;47349;55.640;37.692;2023-06-14T12:56:04;6.80;;;2.90;;
61483;SDS011;47349;55.640;37.692;2023-06-14T12:58:32;5.57;;;3.42;;
61483;SDS011;47349;55.640;37.692;2023-06-14T13:16:00;5.80;;;3.22;;
61483;SDS011;47349;55.640;37.692;2023-06-14T13:31:11;4.75;;;3.10;;
61483;SDS011;47349;55.640;37.692;2023-06-14T13:44:44;5.47;;;2.80;;
61483;SDS011;47349;55.640;37.692;2023-06-14T14:06:20;4.18;;;2.90;;
61483;SDS011;47349;55.640;37.692;2023-06-14T14:11:44;6.13;;;2.65;;
61483;SDS011;47349;55.640;37.692;2023-06-14T14:34:25;2.80;;;2.42;;
61483;SDS011;47349;55.640;37.692;2023-06-14T14:41:22;5.82;;;3.08;;
61483;SDS011;47349;55.640;37.692;2023-06-14T14:43:50;7.28;;;2.72;;
61483;SDS011;47349;55.640;37.692;2023-06-14T16:26:03;4.43;;;2.88;;
61483;SDS011;47349;55.640;37.692;2023-06-14T16:28:34;7.25;;;3.30;;
61483;SDS011;47349;55.640;37.692;2023-06-14T17:28:42;4.40;;;3.03;;
61483;SDS011;47349;55.640;37.692;2023-06-14T17:31:09;6.43;;;2.80;;
61483;SDS011;47349;55.640;37.692;2023-06-14T17:33:37;3.70;;;2.95;;
61483;SDS011;47349;55.640;37.692;2023-06-14T17:39:27;3.45;;;2.50;;
61483;SDS011;47349;55.640;37.692;2023-06-14T17:41:54;5.93;;;3.47;;
61483;SDS011;47349;55.640;37.692;2023-06-14T17:44:21;4.22;;;3.30;;
61483;SDS011;47349;55.640;37.692;2023-06-14T17:49:56;3.78;;;3.13;;
61483;SDS011;47349;55.640;37.692;2023-06-14T17:52:24;7.32;;;3.72;;
61483;SDS011;47349;55.640;37.692;2023-06-14T17:54:52;4.57;;;3.10;;
61483;SDS011;47349;55.640;37.692;2023-06-14T17:57:28;9.15;;;3.55;;
61483;SDS011;47349;55.640;37.692;2023-06-14T17:59:56;7.78;;;3.33;;
61483;SDS011;47349;55.640;37.692;2023-06-14T18:05:12;9.00;;;3.70;;
61483;SDS011;47349;55.640;37.692;2023-06-14T18:07:41;5.97;;;3.40;;
61483;SDS011;47349;55.640;37.692;2023-06-14T18:10:27;5.13;;;3.10;;
61483;SDS011;47349;55.640;37.692;2023-06-14T18:12:55;7.32;;;3.42;;
61483;SDS011;47349;55.640;37.692;2023-06-14T18:15:40;4.28;;;3.10;;
61483;SDS011;47349;55.640;37.692;2023-06-14T18:18:07;5.38;;;3.17;;
61483;SDS011;47349;55.640;37.692;2023-06-14T18:20:35;7.13;;;3.40;;
61483;SDS011;47349;55.640;37.692;2023-06-14T18:23:02;6.93;;;3.67;;
61483;SDS011;47349;55.640;37.692;2023-06-14T18:25:29;17.40;;;9.15;;
61483;SDS011;47349;55.640;37.692;2023-06-14T18:27:56;10.18;;;3.92;;
61483;SDS011;47349;55.640;37.692;2023-06-14T18:30:24;8.02;;;3.83;;
61483;SDS011;47349;55.640;37.692;2023-06-14T18:32:52;6.78;;;3.70;;
61483;SDS011;47349;55.640;37.692;2023-06-14T18:35:19;5.97;;;3.67;;
61483;SDS011;47349;55.640;37.692;2023-06-14T18:37:48;6.18;;;3.33;;
61483;SDS011;47349;55.640;37.692;2023-06-14T18:43:19;13.82;;;6.25;;
61483;SDS011;47349;55.640;37.692;2023-06-14T18:45:46;10.05;;;5.28;;
61483;SDS011;47349;55.640;37.692;2023-06-14T18:48:14;6.50;;;4.43;;
61483;SDS011;47349;55.640;37.692;2023-06-14T18:51:03;8.77;;;4.50;;
61483;SDS011;47349;55.640;37.692;2023-06-14T18:53:34;8.48;;;4.00;;
61483;SDS011;47349;55.640;37.692;2023-06-14T18:56:01;7.88;;;4.50;;
61483;SDS011;47349;55.640;37.692;2023-06-14T19:01:47;5.97;;;4.68;;
61483;SDS011;47349;55.640;37.692;2023-06-14T19:05:17;9.00;;;4.32;;
61483;SDS011;47349;55.640;37.692;2023-06-14T19:08:03;8.77;;;4.47;;
61483;SDS011;47349;55.640;37.692;2023-06-14T19:55:56;8.18;;;4.72;;
61483;SDS011;47349;55.640;37.692;2023-06-14T20:30:18;8.75;;;5.43;;
61483;SDS011;47349;55.640;37.692;2023-06-14T20:32:45;7.43;;;4.75;;
61483;SDS011;47349;55.640;37.692;2023-06-14T20:35:14;9.73;;;4.45;;
61483;SDS011;47349;55.640;37.692;2023-06-14T20:37:41;7.20;;;4.75;;
61483;SDS011;47349;55.640;37.692;2023-06-14T20:40:18;9.05;;;5.22;;
61483;SDS011;47349;55.640;37.692;2023-06-14T20:42:46;7.53;;;4.85;;
61483;SDS011;47349;55.640;37.692;2023-06-14T20:45:14;7.75;;;4.32;;
61483;SDS011;47349;55.640;37.692;2023-06-14T20:47:42;8.00;;;5.28;;
61483;SDS011;47349;55.640;37.692;2023-06-14T20:50:10;10.07;;;5.15;;
61483;SDS011;47349;55.640;37.692;2023-06-14T20:52:39;6.30;;;4.30;;
61483;SDS011;47349;55.640;37.692;2023-06-14T20:55:06;8.90;;;4.80;;
61483;SDS011;47349;55.640;37.692;2023-06-14T20:57:35;10.80;;;7.32;;
61483;SDS011;47349;55.640;37.692;2023-06-14T21:00:02;6.95;;;4.65;;
61483;SDS011;47349;55.640;37.692;2023-06-14T21:02:37;10.15;;;4.45;;
61483;SDS011;47349;55.640;37.692;2023-06-14T21:05:06;11.23;;;4.40;;
61483;SDS011;47349;55.640;37.692;2023-06-14T21:07:34;9.80;;;5.35;;
61483;SDS011;47349;55.640;37.692;2023-06-14T21:10:02;9.13;;;4.75;;
61483;SDS011;47349;55.640;37.692;2023-06-14T21:12:30;12.13;;;5.05;;
61483;SDS011;47349;55.640;37.692;2023-06-14T21:14:57;9.45;;;5.13;;
61483;SDS011;47349;55.640;37.692;2023-06-14T21:17:28;12.90;;;5.30;;
61483;SDS011;47349;55.640;37.692;2023-06-14T21:19:55;9.50;;;5.32;;
61483;SDS011;47349;55.640;37.692;2023-06-14T21:22:23;10.18;;;5.32;;
61483;SDS011;47349;55.640;37.692;2023-06-14T21:24:50;8.32;;;5.50;;
61483;SDS011;47349;55.640;37.692;2023-06-14T21:27:17;9.05;;;5.30;;
61483;SDS011;47349;55.640;37.692;2023-06-14T21:29:44;13.63;;;5.75;;
61483;SDS011;47349;55.640;37.692;2023-06-14T21:32:11;8.10;;;5.85;;
61483;SDS011;47349;55.640;37.692;2023-06-14T21:34:38;12.05;;;5.20;;
61483;SDS011;47349;55.640;37.692;2023-06-14T21:37:07;10.93;;;6.25;;
61483;SDS011;47349;55.640;37.692;2023-06-14T21:39:36;11.77;;;5.72;;
61483;SDS011;47349;55.640;37.692;2023-06-14T21:42:05;12.20;;;5.75;;
61483;SDS011;47349;55.640;37.692;2023-06-14T21:44:40;10.02;;;5.57;;
61483;SDS011;47349;55.640;37.692;2023-06-14T21:47:08;8.32;;;5.40;;
61483;SDS011;47349;55.640;37.692;2023-06-14T21:49:36;8.35;;;4.40;;
61483;SDS011;47349;55.640;37.692;2023-06-14T21:52:05;9.65;;;5.13;;
61483;SDS011;47349;55.640;37.692;2023-06-14T21:54:33;6.85;;;4.53;;
61483;SDS011;47349;55.640;37.692;2023-06-14T21:57:00;9.38;;;5.10;;
61483;SDS011;47349;55.640;37.692;2023-06-14T21:59:27;13.38;;;5.90;;
61483;SDS011;47349;55.640;37.692;2023-06-14T22:01:54;11.00;;;5.18;;
61483;SDS011;47349;55.640;37.692;2023-06-14T22:04:22;12.40;;;5.32;;
61483;SDS011;47349;55.640;37.692;2023-06-14T22:06:49;10.95;;;5.70;;
61483;SDS011;47349;55.640;37.692;2023-06-14T22:09:17;10.88;;;5.57;;
61483;SDS011;47349;55.640;37.692;2023-06-14T22:11:44;14.63;;;6.32;;
61483;SDS011;47349;55.640;37.692;2023-06-14T22:14:12;13.05;;;5.32;;
61483;SDS011;47349;55.640;37.692;2023-06-14T22:16:39;9.35;;;5.50;;
61483;SDS011;47349;55.640;37.692;2023-06-14T22:19:07;14.10;;;5.72;;
61483;SDS011;47349;55.640;37.692;2023-06-14T22:21:35;12.52;;;6.38;;
61483;SDS011;47349;55.640;37.692;2023-06-14T22:24:03;7.88;;;5.53;;
61483;SDS011;47349;55.640;37.692;2023-06-14T22:26:31;10.13;;;5.50;;
61483;SDS011;47349;55.640;37.692;2023-06-14T22:29:06;11.57;;;5.15;;
61483;SDS011;47349;55.640;37.692;2023-06-14T22:31:33;12.23;;;5.40;;
61483;SDS011;47349;55.640;37.692;2023-06-14T22:34:03;11.55;;;4.90;;
61483;SDS011;47349;55.640;37.692;2023-06-14T22:36:31;15.05;;;6.20;;
61483;SDS011;47349;55.640;37.692;2023-06-14T22:38:58;10.80;;;5.00;;
61483;SDS011;47349;55.640;37.692;2023-06-14T22:41:30;11.50;;;5.35;;
61483;SDS011;47349;55.640;37.692;2023-06-14T22:43:58;10.35;;;5.03;;
61483;SDS011;47349;55.640;37.692;2023-06-14T22:46:25;10.20;;;5.65;;
61483;SDS011;47349;55.640;37.692;2023-06-14T22:48:55;14.73;;;5.10;;
61483;SDS011;47349;55.640;37.692;2023-06-14T22:51:23;8.43;;;5.18;;
61483;SDS011;47349;55.640;37.692;2023-06-14T22:53:52;6.90;;;5.25;;
61483;SDS011;47349;55.640;37.692;2023-06-14T22:56:19;12.43;;;4.70;;
61483;SDS011;47349;55.640;37.692;2023-06-14T22:58:47;11.93;;;5.22;;
61483;SDS011;47349;55.640;37.692;2023-06-14T23:01:15;15.68;;;5.55;;
61483;SDS011;47349;55.640;37.692;2023-06-14T23:03:46;20.58;;;5.30;;
61483;SDS011;47349;55.640;37.692;2023-06-14T23:06:17;14.38;;;6.05;;
61483;SDS011;47349;55.640;37.692;2023-06-14T23:08:52;12.52;;;5.60;;
61483;SDS011;47349;55.640;37.692;2023-06-14T23:11:26;18.15;;;5.40;;
61483;SDS011;47349;55.640;37.692;2023-06-14T23:13:54;11.27;;;5.28;;
61483;SDS011;47349;55.640;37.692;2023-06-14T23:16:21;14.20;;;5.32;;
61483;SDS011;47349;55.640;37.692;2023-06-14T23:18:49;10.13;;;4.90;;
61483;SDS011;47349;55.640;37.692;2023-06-14T23:21:18;6.03;;;4.30;;
61483;SDS011;47349;55.640;37.692;2023-06-14T23:23:46;10.05;;;5.15;;
61483;SDS011;47349;55.640;37.692;2023-06-14T23:26:15;9.88;;;4.93;;
61483;SDS011;47349;55.640;37.692;2023-06-14T23:28:43;9.57;;;5.10;;
61483;SDS011;47349;55.640;37.692;2023-06-14T23:31:12;17.83;;;6.22;;
61483;SDS011;47349;55.640;37.692;2023-06-14T23:33:41;17.95;;;6.07;;
61483;SDS011;47349;55.640;37.692;2023-06-14T23:39:03;19.23;;;6.97;;
61483;SDS011;47349;55.640;37.692;2023-06-14T23:41:33;16.55;;;6.75;;
61483;SDS011;47349;55.640;37.692;2023-06-14T23:44:02;17.33;;;6.85;;
61483;SDS011;47349;55.640;37.692;2023-06-14T23:46:31;18.58;;;6.25;;
61483;SDS011;47349;55.640;37.692;2023-06-14T23:49:01;21.70;;;7.10;;
61483;SDS011;47349;55.640;37.692;2023-06-14T23:51:28;19.80;;;7.47;;
61483;SDS011;47349;55.640;37.692;2023-06-14T23:53:57;11.45;;;5.07;;
61483;SDS011;47349;55.640;37.692;2023-06-14T23:56:26;17.02;;;5.93;;
61483;SDS011;47349;55.640;37.692;2023-06-14T23:58:54;12.00;;;6.10;;
